sensor_id;sensor_type;location;lat;lon;timestamp;temperature;humidity
68026;SHT31;54819;48.030;14.710;2023-03-24T00:00:25;12.76;66.84
68026;SHT31;54819;48.030;14.710;2023-03-24T00:02:52;12.77;66.96
68026;SHT31;54819;48.030;14.710;2023-03-24T00:05:20;12.79;66.85
68026;SHT31;54819;48.030;14.710;2023-03-24T00:07:48;12.80;66.66
68026;SHT31;54819;48.030;14.710;2023-03-24T00:10:20;12.82;66.70
68026;SHT31;54819;48.030;14.710;2023-03-24T00:12:49;12.81;66.44
68026;SHT31;54819;48.030;14.710;2023-03-24T00:15:18;12.81;66.93
68026;SHT31;54819;48.030;14.710;2023-03-24T00:17:47;12.75;67.45
68026;SHT31;54819;48.030;14.710;2023-03-24T00:20:16;12.67;66.75
68026;SHT31;54819;48.030;14.710;2023-03-24T00:22:47;12.50;68.36
68026;SHT31;54819;48.030;14.710;2023-03-24T00:25:23;12.33;68.50
68026;SHT31;54819;48.030;14.710;2023-03-24T00:27:54;12.19;68.37
68026;SHT31;54819;48.030;14.710;2023-03-24T00:30:22;12.04;68.70
68026;SHT31;54819;48.030;14.710;2023-03-24T00:32:50;11.98;69.26
68026;SHT31;54819;48.030;14.710;2023-03-24T00:35:18;11.95;69.63
68026;SHT31;54819;48.030;14.710;2023-03-24T00:37:46;11.94;69.86
68026;SHT31;54819;48.030;14.710;2023-03-24T00:40:14;11.96;69.78
68026;SHT31;54819;48.030;14.710;2023-03-24T00:42:44;11.98;69.96
68026;SHT31;54819;48.030;14.710;2023-03-24T00:45:15;11.98;69.93
68026;SHT31;54819;48.030;14.710;2023-03-24T00:47:50;11.99;69.74
68026;SHT31;54819;48.030;14.710;2023-03-24T00:50:20;11.99;69.72
68026;SHT31;54819;48.030;14.710;2023-03-24T00:52:52;11.99;69.65
68026;SHT31;54819;48.030;14.710;2023-03-24T00:55:20;11.97;69.73
68026;SHT31;54819;48.030;14.710;2023-03-24T00:57:48;11.95;69.72
68026;SHT31;54819;48.030;14.710;2023-03-24T01:00:17;11.91;69.89
68026;SHT31;54819;48.030;14.710;2023-03-24T01:02:51;11.90;69.67
68026;SHT31;54819;48.030;14.710;2023-03-24T01:05:23;11.85;69.82
68026;SHT31;54819;48.030;14.710;2023-03-24T01:07:57;11.86;70.05
68026;SHT31;54819;48.030;14.710;2023-03-24T01:10:30;11.86;70.39
68026;SHT31;54819;48.030;14.710;2023-03-24T01:13:01;11.85;70.50
68026;SHT31;54819;48.030;14.710;2023-03-24T01:15:31;11.87;70.58
68026;SHT31;54819;48.030;14.710;2023-03-24T01:17:59;11.87;70.66
68026;SHT31;54819;48.030;14.710;2023-03-24T01:20:28;11.87;70.57
68026;SHT31;54819;48.030;14.710;2023-03-24T01:23:01;11.86;70.86
68026;SHT31;54819;48.030;14.710;2023-03-24T01:25:33;11.85;70.62
68026;SHT31;54819;48.030;14.710;2023-03-24T01:28:03;11.85;70.56
68026;SHT31;54819;48.030;14.710;2023-03-24T01:30:30;11.83;70.59
68026;SHT31;54819;48.030;14.710;2023-03-24T01:32:57;11.80;70.93
68026;SHT31;54819;48.030;14.710;2023-03-24T01:35:24;11.78;70.85
68026;SHT31;54819;48.030;14.710;2023-03-24T01:37:55;11.76;71.14
68026;SHT31;54819;48.030;14.710;2023-03-24T01:40:25;11.75;71.06
68026;SHT31;54819;48.030;14.710;2023-03-24T01:42:57;11.77;71.15
68026;SHT31;54819;48.030;14.710;2023-03-24T01:48:25;11.81;71.03
68026;SHT31;54819;48.030;14.710;2023-03-24T01:51:09;11.81;70.79
68026;SHT31;54819;48.030;14.710;2023-03-24T01:53:45;11.79;71.33
68026;SHT31;54819;48.030;14.710;2023-03-24T01:56:21;11.76;71.51
68026;SHT31;54819;48.030;14.710;2023-03-24T01:58:52;11.73;71.47
68026;SHT31;54819;48.030;14.710;2023-03-24T02:01:33;11.73;71.17
68026;SHT31;54819;48.030;14.710;2023-03-24T02:04:19;11.73;71.28
68026;SHT31;54819;48.030;14.710;2023-03-24T02:06:46;11.73;71.25
68026;SHT31;54819;48.030;14.710;2023-03-24T02:09:14;11.74;71.38
68026;SHT31;54819;48.030;14.710;2023-03-24T02:11:42;11.74;71.16
68026;SHT31;54819;48.030;14.710;2023-03-24T02:14:10;11.76;71.40
68026;SHT31;54819;48.030;14.710;2023-03-24T02:22:10;11.84;71.59
68026;SHT31;54819;48.030;14.710;2023-03-24T02:31:12;11.91;70.81
68026;SHT31;54819;48.030;14.710;2023-03-24T02:43:01;11.92;71.44
68026;SHT31;54819;48.030;14.710;2023-03-24T02:49:04;11.90;71.16
68026;SHT31;54819;48.030;14.710;2023-03-24T02:54:50;11.97;70.86
68026;SHT31;54819;48.030;14.710;2023-03-24T03:00:49;12.06;70.17
68026;SHT31;54819;48.030;14.710;2023-03-24T03:03:50;12.08;69.96
68026;SHT31;54819;48.030;14.710;2023-03-24T03:06:32;12.09;70.29
68026;SHT31;54819;48.030;14.710;2023-03-24T03:09:07;12.08;70.43
68026;SHT31;54819;48.030;14.710;2023-03-24T03:11:39;12.10;70.23
68026;SHT31;54819;48.030;14.710;2023-03-24T03:14:12;12.10;70.23
68026;SHT31;54819;48.030;14.710;2023-03-24T03:16:52;12.12;69.93
68026;SHT31;54819;48.030;14.710;2023-03-24T03:22:22;12.19;69.75
68026;SHT31;54819;48.030;14.710;2023-03-24T03:24:57;12.22;69.78
68026;SHT31;54819;48.030;14.710;2023-03-24T03:27:30;12.25;69.48
68026;SHT31;54819;48.030;14.710;2023-03-24T03:30:11;12.30;69.18
68026;SHT31;54819;48.030;14.710;2023-03-24T03:32:50;12.34;69.04
68026;SHT31;54819;48.030;14.710;2023-03-24T03:38:47;12.41;68.61
68026;SHT31;54819;48.030;14.710;2023-03-24T03:41:35;12.44;68.36
68026;SHT31;54819;48.030;14.710;2023-03-24T03:44:04;12.46;68.46
68026;SHT31;54819;48.030;14.710;2023-03-24T03:46:33;12.48;68.20
68026;SHT31;54819;48.030;14.710;2023-03-24T03:49:02;12.50;68.01
68026;SHT31;54819;48.030;14.710;2023-03-24T03:51:32;12.52;67.89
68026;SHT31;54819;48.030;14.710;2023-03-24T03:54:01;12.53;67.74
68026;SHT31;54819;48.030;14.710;2023-03-24T03:56:33;12.52;68.10
68026;SHT31;54819;48.030;14.710;2023-03-24T03:59:25;12.51;67.97
68026;SHT31;54819;48.030;14.710;2023-03-24T04:05:12;12.50;68.02
68026;SHT31;54819;48.030;14.710;2023-03-24T04:11:22;12.47;68.24
68026;SHT31;54819;48.030;14.710;2023-03-24T04:20:49;12.52;67.80
68026;SHT31;54819;48.030;14.710;2023-03-24T04:26:29;12.50;67.96
68026;SHT31;54819;48.030;14.710;2023-03-24T04:29:19;12.50;67.88
68026;SHT31;54819;48.030;14.710;2023-03-24T04:32:28;12.48;67.99
68026;SHT31;54819;48.030;14.710;2023-03-24T04:35:08;12.45;68.18
68026;SHT31;54819;48.030;14.710;2023-03-24T04:38:24;12.41;68.30
68026;SHT31;54819;48.030;14.710;2023-03-24T04:41:05;12.40;68.28
68026;SHT31;54819;48.030;14.710;2023-03-24T04:43:33;12.40;68.19
68026;SHT31;54819;48.030;14.710;2023-03-24T04:46:03;12.37;68.52
68026;SHT31;54819;48.030;14.710;2023-03-24T04:48:57;12.34;68.50
68026;SHT31;54819;48.030;14.710;2023-03-24T04:51:30;12.31;68.80
68026;SHT31;54819;48.030;14.710;2023-03-24T04:54:01;12.32;68.60
68026;SHT31;54819;48.030;14.710;2023-03-24T04:59:05;12.30;68.80
68026;SHT31;54819;48.030;14.710;2023-03-24T05:01:32;12.30;68.67
68026;SHT31;54819;48.030;14.710;2023-03-24T05:04:20;12.24;68.84
68026;SHT31;54819;48.030;14.710;2023-03-24T05:06:50;12.24;68.55
68026;SHT31;54819;48.030;14.710;2023-03-24T05:09:21;12.24;68.24
68026;SHT31;54819;48.030;14.710;2023-03-24T05:11:50;12.23;68.37
68026;SHT31;54819;48.030;14.710;2023-03-24T05:14:19;12.22;68.08
68026;SHT31;54819;48.030;14.710;2023-03-24T05:16:45;12.17;68.43
68026;SHT31;54819;48.030;14.710;2023-03-24T05:19:12;12.11;68.49
68026;SHT31;54819;48.030;14.710;2023-03-24T05:21:39;12.07;68.49
68026;SHT31;54819;48.030;14.710;2023-03-24T05:24:07;12.05;68.87
68026;SHT31;54819;48.030;14.710;2023-03-24T05:26:34;12.07;68.98
68026;SHT31;54819;48.030;14.710;2023-03-24T05:29:08;12.10;68.63
68026;SHT31;54819;48.030;14.710;2023-03-24T05:31:35;12.11;68.99
68026;SHT31;54819;48.030;14.710;2023-03-24T05:34:09;12.07;69.37
68026;SHT31;54819;48.030;14.710;2023-03-24T05:36:46;12.03;69.68
68026;SHT31;54819;48.030;14.710;2023-03-24T05:39:14;12.01;69.61
68026;SHT31;54819;48.030;14.710;2023-03-24T05:41:48;12.00;69.68
68026;SHT31;54819;48.030;14.710;2023-03-24T05:44:15;12.02;69.42
68026;SHT31;54819;48.030;14.710;2023-03-24T05:46:45;12.01;69.62
68026;SHT31;54819;48.030;14.710;2023-03-24T05:49:12;12.03;69.74
68026;SHT31;54819;48.030;14.710;2023-03-24T05:51:40;12.06;69.40
68026;SHT31;54819;48.030;14.710;2023-03-24T05:54:07;12.04;69.40
68026;SHT31;54819;48.030;14.710;2023-03-24T05:56:45;12.05;69.88
68026;SHT31;54819;48.030;14.710;2023-03-24T05:59:29;12.03;70.02
68026;SHT31;54819;48.030;14.710;2023-03-24T06:02:10;12.10;70.05
68026;SHT31;54819;48.030;14.710;2023-03-24T06:04:42;12.16;70.24
68026;SHT31;54819;48.030;14.710;2023-03-24T06:07:17;12.22;70.37
68026;SHT31;54819;48.030;14.710;2023-03-24T06:09:44;12.26;70.26
68026;SHT31;54819;48.030;14.710;2023-03-24T06:12:12;12.31;70.14
68026;SHT31;54819;48.030;14.710;2023-03-24T06:14:51;12.31;70.23
68026;SHT31;54819;48.030;14.710;2023-03-24T06:17:18;12.35;70.00
68026;SHT31;54819;48.030;14.710;2023-03-24T06:19:48;12.41;69.82
68026;SHT31;54819;48.030;14.710;2023-03-24T06:22:36;12.47;69.90
68026;SHT31;54819;48.030;14.710;2023-03-24T06:25:07;12.55;69.72
68026;SHT31;54819;48.030;14.710;2023-03-24T06:27:35;12.63;69.32
68026;SHT31;54819;48.030;14.710;2023-03-24T06:30:03;12.72;69.37
68026;SHT31;54819;48.030;14.710;2023-03-24T06:32:32;12.83;69.45
68026;SHT31;54819;48.030;14.710;2023-03-24T06:34:59;12.95;69.99
68026;SHT31;54819;48.030;14.710;2023-03-24T06:37:34;13.06;70.01
68026;SHT31;54819;48.030;14.710;2023-03-24T06:40:02;13.13;70.24
68026;SHT31;54819;48.030;14.710;2023-03-24T06:42:30;13.18;70.09
68026;SHT31;54819;48.030;14.710;2023-03-24T06:44:57;13.24;70.08
68026;SHT31;54819;48.030;14.710;2023-03-24T06:47:24;13.30;69.77
68026;SHT31;54819;48.030;14.710;2023-03-24T06:49:51;13.33;69.76
68026;SHT31;54819;48.030;14.710;2023-03-24T06:52:18;13.38;69.60
68026;SHT31;54819;48.030;14.710;2023-03-24T06:54:45;13.44;69.57
68026;SHT31;54819;48.030;14.710;2023-03-24T06:57:12;13.49;69.43
68026;SHT31;54819;48.030;14.710;2023-03-24T06:59:59;13.55;69.35
68026;SHT31;54819;48.030;14.710;2023-03-24T07:02:29;13.57;69.36
68026;SHT31;54819;48.030;14.710;2023-03-24T07:05:01;13.62;69.23
68026;SHT31;54819;48.030;14.710;2023-03-24T07:07:39;13.70;69.05
68026;SHT31;54819;48.030;14.710;2023-03-24T07:10:25;13.77;68.75
68026;SHT31;54819;48.030;14.710;2023-03-24T07:12:51;13.82;68.76
68026;SHT31;54819;48.030;14.710;2023-03-24T07:15:18;13.92;68.91
68026;SHT31;54819;48.030;14.710;2023-03-24T07:17:45;14.03;68.83
68026;SHT31;54819;48.030;14.710;2023-03-24T07:20:35;14.16;68.54
68026;SHT31;54819;48.030;14.710;2023-03-24T07:23:13;14.30;68.38
68026;SHT31;54819;48.030;14.710;2023-03-24T07:26:02;14.43;67.90
68026;SHT31;54819;48.030;14.710;2023-03-24T07:28:44;14.55;67.68
68026;SHT31;54819;48.030;14.710;2023-03-24T07:31:15;14.67;67.52
68026;SHT31;54819;48.030;14.710;2023-03-24T07:33:46;14.81;67.24
68026;SHT31;54819;48.030;14.710;2023-03-24T07:36:13;14.95;66.96
68026;SHT31;54819;48.030;14.710;2023-03-24T07:38:40;15.09;66.47
68026;SHT31;54819;48.030;14.710;2023-03-24T07:41:10;15.23;66.29
68026;SHT31;54819;48.030;14.710;2023-03-24T07:43:39;15.36;65.71
68026;SHT31;54819;48.030;14.710;2023-03-24T07:46:17;15.46;65.29
68026;SHT31;54819;48.030;14.710;2023-03-24T07:48:45;15.57;64.56
68026;SHT31;54819;48.030;14.710;2023-03-24T07:51:12;15.68;64.52
68026;SHT31;54819;48.030;14.710;2023-03-24T07:53:51;15.79;64.22
68026;SHT31;54819;48.030;14.710;2023-03-24T07:56:38;15.93;63.83
68026;SHT31;54819;48.030;14.710;2023-03-24T07:59:06;16.05;63.79
68026;SHT31;54819;48.030;14.710;2023-03-24T08:01:49;16.17;63.45
68026;SHT31;54819;48.030;14.710;2023-03-24T08:04:45;16.30;62.84
68026;SHT31;54819;48.030;14.710;2023-03-24T08:07:28;16.38;62.66
68026;SHT31;54819;48.030;14.710;2023-03-24T08:09:55;16.48;62.31
68026;SHT31;54819;48.030;14.710;2023-03-24T08:12:21;16.56;62.31
68026;SHT31;54819;48.030;14.710;2023-03-24T08:14:48;16.61;61.69
68026;SHT31;54819;48.030;14.710;2023-03-24T08:17:15;16.57;60.10
68026;SHT31;54819;48.030;14.710;2023-03-24T08:19:42;16.59;61.55
68026;SHT31;54819;48.030;14.710;2023-03-24T08:22:24;16.68;61.47
68026;SHT31;54819;48.030;14.710;2023-03-24T08:24:52;16.75;61.23
68026;SHT31;54819;48.030;14.710;2023-03-24T08:27:19;16.82;61.10
68026;SHT31;54819;48.030;14.710;2023-03-24T08:29:45;16.91;61.03
68026;SHT31;54819;48.030;14.710;2023-03-24T08:32:12;17.01;61.34
68026;SHT31;54819;48.030;14.710;2023-03-24T08:34:39;17.08;60.62
68026;SHT31;54819;48.030;14.710;2023-03-24T08:37:05;17.15;60.03
68026;SHT31;54819;48.030;14.710;2023-03-24T08:39:33;17.30;60.18
68026;SHT31;54819;48.030;14.710;2023-03-24T08:42:01;17.44;60.17
68026;SHT31;54819;48.030;14.710;2023-03-24T08:44:28;17.55;59.58
68026;SHT31;54819;48.030;14.710;2023-03-24T08:46:59;17.66;59.53
68026;SHT31;54819;48.030;14.710;2023-03-24T08:49:26;17.69;59.75
68026;SHT31;54819;48.030;14.710;2023-03-24T08:51:53;17.70;59.67
68026;SHT31;54819;48.030;14.710;2023-03-24T08:54:20;17.76;59.92
68026;SHT31;54819;48.030;14.710;2023-03-24T08:56:49;17.80;58.09
68026;SHT31;54819;48.030;14.710;2023-03-24T08:59:16;17.88;58.13
68026;SHT31;54819;48.030;14.710;2023-03-24T09:01:43;18.02;58.07
68026;SHT31;54819;48.030;14.710;2023-03-24T09:04:11;18.17;57.28
68026;SHT31;54819;48.030;14.710;2023-03-24T09:06:38;18.25;56.55
68026;SHT31;54819;48.030;14.710;2023-03-24T09:09:05;18.41;57.06
68026;SHT31;54819;48.030;14.710;2023-03-24T09:11:32;18.51;56.32
68026;SHT31;54819;48.030;14.710;2023-03-24T09:14:00;18.52;55.77
68026;SHT31;54819;48.030;14.710;2023-03-24T09:16:27;18.57;56.07
68026;SHT31;54819;48.030;14.710;2023-03-24T09:18:54;18.62;55.26
68026;SHT31;54819;48.030;14.710;2023-03-24T09:21:20;18.74;55.94
68026;SHT31;54819;48.030;14.710;2023-03-24T09:23:47;18.81;55.03
68026;SHT31;54819;48.030;14.710;2023-03-24T09:26:14;18.91;55.28
68026;SHT31;54819;48.030;14.710;2023-03-24T09:28:41;19.03;54.89
68026;SHT31;54819;48.030;14.710;2023-03-24T09:31:07;19.09;53.87
68026;SHT31;54819;48.030;14.710;2023-03-24T09:33:34;19.17;54.33
68026;SHT31;54819;48.030;14.710;2023-03-24T09:36:01;19.16;55.42
68026;SHT31;54819;48.030;14.710;2023-03-24T09:38:30;18.99;56.48
68026;SHT31;54819;48.030;14.710;2023-03-24T09:40:57;18.68;56.95
68026;SHT31;54819;48.030;14.710;2023-03-24T09:46:40;18.25;57.94
68026;SHT31;54819;48.030;14.710;2023-03-24T09:49:20;18.13;58.17
68026;SHT31;54819;48.030;14.710;2023-03-24T09:52:01;18.13;58.34
68026;SHT31;54819;48.030;14.710;2023-03-24T09:57:29;18.06;58.21
68026;SHT31;54819;48.030;14.710;2023-03-24T10:06:04;18.25;57.73
68026;SHT31;54819;48.030;14.710;2023-03-24T10:08:41;18.23;57.78
68026;SHT31;54819;48.030;14.710;2023-03-24T10:11:34;18.32;57.33
68026;SHT31;54819;48.030;14.710;2023-03-24T10:26:06;19.15;55.81
68026;SHT31;54819;48.030;14.710;2023-03-24T10:31:28;19.31;53.85
68026;SHT31;54819;48.030;14.710;2023-03-24T10:33:58;19.39;53.22
68026;SHT31;54819;48.030;14.710;2023-03-24T10:36:26;19.53;54.02
68026;SHT31;54819;48.030;14.710;2023-03-24T10:38:54;19.44;53.42
68026;SHT31;54819;48.030;14.710;2023-03-24T10:41:24;19.60;54.13
68026;SHT31;54819;48.030;14.710;2023-03-24T10:43:55;19.82;53.92
68026;SHT31;54819;48.030;14.710;2023-03-24T10:46:24;19.82;53.39
68026;SHT31;54819;48.030;14.710;2023-03-24T10:51:58;19.82;53.48
68026;SHT31;54819;48.030;14.710;2023-03-24T10:54:30;19.76;53.46
68026;SHT31;54819;48.030;14.710;2023-03-24T10:59:28;19.98;53.13
68026;SHT31;54819;48.030;14.710;2023-03-24T11:04:36;20.34;52.90
68026;SHT31;54819;48.030;14.710;2023-03-24T11:07:19;20.38;52.31
68026;SHT31;54819;48.030;14.710;2023-03-24T11:12:35;20.44;52.04
68026;SHT31;54819;48.030;14.710;2023-03-24T11:17:55;20.39;52.37
68026;SHT31;54819;48.030;14.710;2023-03-24T11:20:45;20.35;52.63
68026;SHT31;54819;48.030;14.710;2023-03-24T11:29:21;20.46;53.47
68026;SHT31;54819;48.030;14.710;2023-03-24T11:31:54;20.49;52.67
68026;SHT31;54819;48.030;14.710;2023-03-24T11:34:29;20.41;52.99
68026;SHT31;54819;48.030;14.710;2023-03-24T11:37:10;20.21;53.35
68026;SHT31;54819;48.030;14.710;2023-03-24T11:42:47;20.30;52.70
68026;SHT31;54819;48.030;14.710;2023-03-24T11:50:58;19.85;52.62
68026;SHT31;54819;48.030;14.710;2023-03-24T11:53:28;19.84;53.15
68026;SHT31;54819;48.030;14.710;2023-03-24T12:02:23;19.81;51.61
68026;SHT31;54819;48.030;14.710;2023-03-24T12:05:35;19.84;51.46
68026;SHT31;54819;48.030;14.710;2023-03-24T12:11:05;19.89;51.51
68026;SHT31;54819;48.030;14.710;2023-03-24T12:13:47;19.90;51.77
68026;SHT31;54819;48.030;14.710;2023-03-24T12:19:24;19.92;52.79
68026;SHT31;54819;48.030;14.710;2023-03-24T12:25:31;20.09;52.76
68026;SHT31;54819;48.030;14.710;2023-03-24T12:28:05;19.94;52.78
68026;SHT31;54819;48.030;14.710;2023-03-24T12:31:11;19.77;53.54
68026;SHT31;54819;48.030;14.710;2023-03-24T12:40:36;18.92;54.35
68026;SHT31;54819;48.030;14.710;2023-03-24T12:43:37;18.69;54.59
68026;SHT31;54819;48.030;14.710;2023-03-24T12:53:05;17.99;55.38
68026;SHT31;54819;48.030;14.710;2023-03-24T12:56:01;17.83;56.08
68026;SHT31;54819;48.030;14.710;2023-03-24T13:01:40;17.41;57.49
68026;SHT31;54819;48.030;14.710;2023-03-24T13:04:44;17.36;57.83
68026;SHT31;54819;48.030;14.710;2023-03-24T13:07:08;17.34;57.96
68026;SHT31;54819;48.030;14.710;2023-03-24T13:09:45;17.26;58.22
68026;SHT31;54819;48.030;14.710;2023-03-24T13:12:37;17.12;59.15
68026;SHT31;54819;48.030;14.710;2023-03-24T13:17:40;16.84;59.91
68026;SHT31;54819;48.030;14.710;2023-03-24T13:20:59;16.71;60.03
68026;SHT31;54819;48.030;14.710;2023-03-24T13:37:45;15.91;63.12
68026;SHT31;54819;48.030;14.710;2023-03-24T13:40:26;15.90;63.15
68026;SHT31;54819;48.030;14.710;2023-03-24T13:43:00;15.84;63.61
68026;SHT31;54819;48.030;14.710;2023-03-24T13:45:40;15.73;64.31
68026;SHT31;54819;48.030;14.710;2023-03-24T13:48:20;15.66;64.62
68026;SHT31;54819;48.030;14.710;2023-03-24T13:51:14;15.65;64.64
68026;SHT31;54819;48.030;14.710;2023-03-24T13:53:59;15.56;65.23
68026;SHT31;54819;48.030;14.710;2023-03-24T13:57:00;15.55;65.20
68026;SHT31;54819;48.030;14.710;2023-03-24T14:07:30;15.47;67.51
68026;SHT31;54819;48.030;14.710;2023-03-24T14:15:26;15.44;69.28
68026;SHT31;54819;48.030;14.710;2023-03-24T14:26:04;15.21;72.47
68026;SHT31;54819;48.030;14.710;2023-03-24T14:28:46;15.21;72.69
68026;SHT31;54819;48.030;14.710;2023-03-24T14:39:08;15.48;72.80
68026;SHT31;54819;48.030;14.710;2023-03-24T14:42:09;15.49;73.28
68026;SHT31;54819;48.030;14.710;2023-03-24T14:45:03;15.48;72.79
68026;SHT31;54819;48.030;14.710;2023-03-24T14:47:56;15.46;72.81
68026;SHT31;54819;48.030;14.710;2023-03-24T14:50:26;15.46;72.61
68026;SHT31;54819;48.030;14.710;2023-03-24T14:52:58;15.51;72.63
68026;SHT31;54819;48.030;14.710;2023-03-24T14:55:27;15.54;72.61
68026;SHT31;54819;48.030;14.710;2023-03-24T14:57:59;15.62;73.00
68026;SHT31;54819;48.030;14.710;2023-03-24T15:00:45;15.61;74.65
68026;SHT31;54819;48.030;14.710;2023-03-24T15:03:38;15.64;73.46
68026;SHT31;54819;48.030;14.710;2023-03-24T15:06:20;15.67;73.04
68026;SHT31;54819;48.030;14.710;2023-03-24T15:08:53;15.68;73.33
68026;SHT31;54819;48.030;14.710;2023-03-24T15:11:33;15.69;73.64
68026;SHT31;54819;48.030;14.710;2023-03-24T15:14:04;15.72;73.09
68026;SHT31;54819;48.030;14.710;2023-03-24T15:16:33;15.74;73.25
68026;SHT31;54819;48.030;14.710;2023-03-24T15:19:22;15.75;73.76
68026;SHT31;54819;48.030;14.710;2023-03-24T15:24:33;15.74;73.27
68026;SHT31;54819;48.030;14.710;2023-03-24T15:32:05;15.79;72.76
68026;SHT31;54819;48.030;14.710;2023-03-24T15:34:36;15.79;72.20
68026;SHT31;54819;48.030;14.710;2023-03-24T15:37:18;15.78;72.02
68026;SHT31;54819;48.030;14.710;2023-03-24T15:39:55;15.75;71.99
68026;SHT31;54819;48.030;14.710;2023-03-24T15:42:40;15.72;71.95
68026;SHT31;54819;48.030;14.710;2023-03-24T15:45:22;15.69;72.49
68026;SHT31;54819;48.030;14.710;2023-03-24T15:47:56;15.67;72.42
68026;SHT31;54819;48.030;14.710;2023-03-24T15:55:41;15.81;72.11
68026;SHT31;54819;48.030;14.710;2023-03-24T15:58:19;15.76;72.39
68026;SHT31;54819;48.030;14.710;2023-03-24T16:00:52;15.63;72.77
68026;SHT31;54819;48.030;14.710;2023-03-24T16:03:24;15.56;72.33
68026;SHT31;54819;48.030;14.710;2023-03-24T16:05:53;15.49;72.20
68026;SHT31;54819;48.030;14.710;2023-03-24T16:08:32;15.39;72.55
68026;SHT31;54819;48.030;14.710;2023-03-24T16:11:05;15.28;72.81
68026;SHT31;54819;48.030;14.710;2023-03-24T16:13:40;15.19;73.44
68026;SHT31;54819;48.030;14.710;2023-03-24T16:18:42;15.08;73.54
68026;SHT31;54819;48.030;14.710;2023-03-24T16:21:15;15.04;73.26
68026;SHT31;54819;48.030;14.710;2023-03-24T16:23:49;14.97;73.65
68026;SHT31;54819;48.030;14.710;2023-03-24T16:26:28;14.90;73.94
68026;SHT31;54819;48.030;14.710;2023-03-24T16:31:51;14.71;75.03
68026;SHT31;54819;48.030;14.710;2023-03-24T16:34:21;14.68;74.69
68026;SHT31;54819;48.030;14.710;2023-03-24T16:36:49;14.69;74.67
68026;SHT31;54819;48.030;14.710;2023-03-24T16:39:20;14.71;74.83
68026;SHT31;54819;48.030;14.710;2023-03-24T16:41:51;14.76;75.20
68026;SHT31;54819;48.030;14.710;2023-03-24T16:44:21;14.80;73.74
68026;SHT31;54819;48.030;14.710;2023-03-24T16:46:49;14.76;73.65
68026;SHT31;54819;48.030;14.710;2023-03-24T16:49:19;14.62;74.36
68026;SHT31;54819;48.030;14.710;2023-03-24T16:51:48;14.57;73.80
68026;SHT31;54819;48.030;14.710;2023-03-24T16:54:15;14.56;73.92
68026;SHT31;54819;48.030;14.710;2023-03-24T16:56:42;14.49;75.02
68026;SHT31;54819;48.030;14.710;2023-03-24T16:59:09;14.43;75.00
68026;SHT31;54819;48.030;14.710;2023-03-24T17:01:38;14.43;74.18
68026;SHT31;54819;48.030;14.710;2023-03-24T17:04:14;14.33;75.33
68026;SHT31;54819;48.030;14.710;2023-03-24T17:06:48;14.24;75.75
68026;SHT31;54819;48.030;14.710;2023-03-24T17:09:20;14.16;75.81
68026;SHT31;54819;48.030;14.710;2023-03-24T17:11:55;14.06;75.65
68026;SHT31;54819;48.030;14.710;2023-03-24T17:14:23;13.99;75.38
68026;SHT31;54819;48.030;14.710;2023-03-24T17:16:50;13.92;75.84
68026;SHT31;54819;48.030;14.710;2023-03-24T17:19:19;13.87;75.90
68026;SHT31;54819;48.030;14.710;2023-03-24T17:21:50;13.85;76.28
68026;SHT31;54819;48.030;14.710;2023-03-24T17:24:26;13.85;76.05
68026;SHT31;54819;48.030;14.710;2023-03-24T17:26:55;13.83;75.65
68026;SHT31;54819;48.030;14.710;2023-03-24T17:29:22;13.81;75.22
68026;SHT31;54819;48.030;14.710;2023-03-24T17:31:48;13.82;74.91
68026;SHT31;54819;48.030;14.710;2023-03-24T17:34:15;13.84;74.82
68026;SHT31;54819;48.030;14.710;2023-03-24T17:36:47;13.86;74.86
68026;SHT31;54819;48.030;14.710;2023-03-24T17:39:16;13.87;75.00
68026;SHT31;54819;48.030;14.710;2023-03-24T17:41:45;13.87;75.45
68026;SHT31;54819;48.030;14.710;2023-03-24T17:44:11;13.85;75.80
68026;SHT31;54819;48.030;14.710;2023-03-24T17:46:38;13.84;75.77
68026;SHT31;54819;48.030;14.710;2023-03-24T17:49:05;13.83;75.91
68026;SHT31;54819;48.030;14.710;2023-03-24T17:51:32;13.80;76.04
68026;SHT31;54819;48.030;14.710;2023-03-24T17:53:59;13.79;75.63
68026;SHT31;54819;48.030;14.710;2023-03-24T17:56:26;13.76;75.44
68026;SHT31;54819;48.030;14.710;2023-03-24T17:58:52;13.72;75.68
68026;SHT31;54819;48.030;14.710;2023-03-24T18:01:20;13.70;75.79
68026;SHT31;54819;48.030;14.710;2023-03-24T18:03:49;13.69;76.00
68026;SHT31;54819;48.030;14.710;2023-03-24T18:06:15;13.68;75.81
68026;SHT31;54819;48.030;14.710;2023-03-24T18:08:42;13.69;76.44
68026;SHT31;54819;48.030;14.710;2023-03-24T18:11:10;13.68;76.68
68026;SHT31;54819;48.030;14.710;2023-03-24T18:13:40;13.66;76.87
68026;SHT31;54819;48.030;14.710;2023-03-24T18:16:08;13.66;76.63
68026;SHT31;54819;48.030;14.710;2023-03-24T18:18:47;13.62;76.89
68026;SHT31;54819;48.030;14.710;2023-03-24T18:21:15;13.59;77.75
68026;SHT31;54819;48.030;14.710;2023-03-24T18:23:43;13.58;77.35
68026;SHT31;54819;48.030;14.710;2023-03-24T18:26:12;13.57;77.03
68026;SHT31;54819;48.030;14.710;2023-03-24T18:28:41;13.56;78.43
68026;SHT31;54819;48.030;14.710;2023-03-24T18:31:11;13.56;77.76
68026;SHT31;54819;48.030;14.710;2023-03-24T18:33:44;13.53;78.04
68026;SHT31;54819;48.030;14.710;2023-03-24T18:36:14;13.52;77.66
68026;SHT31;54819;48.030;14.710;2023-03-24T18:38:47;13.49;77.68
68026;SHT31;54819;48.030;14.710;2023-03-24T18:41:14;13.47;77.44
68026;SHT31;54819;48.030;14.710;2023-03-24T18:43:44;13.47;77.66
68026;SHT31;54819;48.030;14.710;2023-03-24T18:46:13;13.46;77.91
68026;SHT31;54819;48.030;14.710;2023-03-24T18:48:41;13.46;78.17
68026;SHT31;54819;48.030;14.710;2023-03-24T18:51:09;13.45;78.28
68026;SHT31;54819;48.030;14.710;2023-03-24T18:53:37;13.48;78.19
68026;SHT31;54819;48.030;14.710;2023-03-24T18:56:04;13.49;79.13
68026;SHT31;54819;48.030;14.710;2023-03-24T18:58:34;13.48;79.07
68026;SHT31;54819;48.030;14.710;2023-03-24T19:01:07;13.48;79.50
68026;SHT31;54819;48.030;14.710;2023-03-24T19:03:37;13.47;79.87
68026;SHT31;54819;48.030;14.710;2023-03-24T19:06:07;13.44;80.34
68026;SHT31;54819;48.030;14.710;2023-03-24T19:08:38;13.45;80.34
68026;SHT31;54819;48.030;14.710;2023-03-24T19:11:10;13.44;80.36
68026;SHT31;54819;48.030;14.710;2023-03-24T19:13:38;13.44;80.46
68026;SHT31;54819;48.030;14.710;2023-03-24T19:16:07;13.43;79.84
68026;SHT31;54819;48.030;14.710;2023-03-24T19:18:36;13.44;78.38
68026;SHT31;54819;48.030;14.710;2023-03-24T19:21:03;13.42;77.82
68026;SHT31;54819;48.030;14.710;2023-03-24T19:23:32;13.38;77.41